Terminal Aerodrome Forecast
Issued by NWS

Current Version | Previous Version | Text Only | Print | Product List | Glossary On
Versions: 1 2 3 4 5 6 7 8 9 10 11 12 13 14 15 16 17 18 19 20 21 22 23 24 25 26 27 28 29 30 31
000
FTUS41 KBUF 041700
TAFJHW
TAF
KJHW 041736Z 0418/0518 25012G18KT P6SM OVC015
     FM050000 29010G17KT P6SM VCSH OVC015
     FM050600 33009KT P6SM OVC012
     FM051100 33007KT P6SM OVC045
     FM051300 32007KT P6SM OVC080
      AMD LTD TO CLD VIS AND WIND=

USA.gov is the U.S. government's official web portal to all federal, state and local government web resources and services.